Archival Weather

NSFA McMurdo Sound

NSFA McMurdo Sound, Antarctica (NZCM)

Report from: Saturday, February 24, 2024 4:55 AM UTC
Current time: Friday, June 14, 2024 11:57 AM UTC

Current weather – Weather history – Daily summaries
Weather forecast

Temperature-13.9°C (7.0°F)
Wind chill-22.8°C (-9.1°F)
Dew point-30.1°C (-22.2°F)
Winds 11 kts (5.7 m/s, 12.7 mph) Northeast (50°)
Visibility6.2 mi. (10 km)
Clouds Scattered clouds 13,000 ft. (3,962 m)
Altimeter29.22 in.Hg (990 mB)
Relative humidity24 %
Density altitude-2,828 ft. (-862 m)
Sea-level pressure99.0 kPa (990 mB, 29.24 in.Hg)
Remarks Fully automated report
Automated weather observing station with precipitation discriminator
Flight conditions Visual Meteorological Conditions
Raw dataNZCM 240455Z AUTO 05011KT 9999 SCT130 M14/M30 A2922 RMK AO2 SLP902 T11391301
An error has occurred. This application may no longer respond until reloaded. Reload 🗙